createdAt,value
2023-01-30T00:02:47.894Z,28.9
2023-01-30T00:07:48.458Z,24.9
2023-01-30T00:12:49.041Z,27.7
2023-01-30T00:17:49.544Z,27.8
2023-01-30T00:23:00.336Z,26.5
2023-01-30T00:27:51.357Z,29.7
2023-01-30T00:32:51.950Z,26.4
2023-01-30T00:37:53.113Z,26.4
2023-01-30T00:42:53.617Z,28
2023-01-30T00:47:54.090Z,27.9
2023-01-30T00:52:54.716Z,25.5
2023-01-30T00:57:55.400Z,26.9
2023-01-30T01:02:56.163Z,31.6
2023-01-30T01:07:56.987Z,29.4
2023-01-30T01:12:57.454Z,32.5
2023-01-30T01:17:57.890Z,32.4
2023-01-30T01:22:58.349Z,32.9
2023-01-30T01:27:58.794Z,35.9
2023-01-30T01:32:59.323Z,31.9
2023-01-30T01:37:59.714Z,33.4
2023-01-30T01:43:00.383Z,34.5
2023-01-30T01:48:01.082Z,34.9
2023-01-30T01:53:01.706Z,36.5
2023-01-30T01:58:02.907Z,36.5
2023-01-30T02:03:03.489Z,36.3
2023-01-30T02:08:04.108Z,38.3
2023-01-30T02:13:04.554Z,36.6
2023-01-30T02:18:05.061Z,41
2023-01-30T02:23:05.607Z,42
2023-01-30T02:28:05.997Z,37.7
2023-01-30T02:33:06.385Z,38.8
2023-01-30T02:38:06.935Z,40.1
2023-01-30T02:43:07.334Z,37.8
2023-01-30T02:48:07.735Z,35
2023-01-30T02:53:08.260Z,37.8
2023-01-30T02:58:09.148Z,34.7
2023-01-30T03:03:10.042Z,35.9
2023-01-30T03:08:10.888Z,37
2023-01-30T03:13:11.624Z,34.8
2023-01-30T03:18:12.458Z,36.3
2023-01-30T03:23:12.870Z,36.8
2023-01-30T03:28:13.582Z,38.1
2023-01-30T03:33:14.657Z,39.2
2023-01-30T03:38:15.116Z,38
2023-01-30T03:43:15.535Z,34.9
2023-01-30T03:48:16.070Z,39.6
2023-01-30T03:53:16.715Z,37.3
2023-01-30T03:58:17.304Z,36.3
2023-01-30T04:03:17.961Z,37.6
2023-01-30T04:08:18.599Z,37.8
2023-01-30T04:13:19.756Z,38.9
2023-01-30T04:18:20.278Z,37
2023-01-30T04:23:20.748Z,36.7
2023-01-30T04:28:21.216Z,37.4
2023-01-30T04:33:21.676Z,42.3
2023-01-30T04:38:22.178Z,37.4
2023-01-30T04:43:23.257Z,40.7
2023-01-30T04:48:24.730Z,38.7
2023-01-30T04:53:25.213Z,45
2023-01-30T04:58:26.365Z,40.8
2023-01-30T05:03:26.916Z,42.6
2023-01-30T05:08:27.563Z,43.2
2023-01-30T05:13:28.344Z,42.7
2023-01-30T05:18:28.752Z,47.4
2023-01-30T05:23:29.923Z,46.3
2023-01-30T05:28:30.665Z,44
2023-01-30T05:33:31.150Z,47.5
2023-01-30T05:38:31.727Z,46
2023-01-30T05:43:32.808Z,46.7
2023-01-30T05:48:33.442Z,46.1
2023-01-30T05:53:33.943Z,47.4
2023-01-30T05:58:34.673Z,49.5
2023-01-30T06:03:35.443Z,44
2023-01-30T06:08:36.106Z,48.7
2023-01-30T06:13:36.856Z,49.9
2023-01-30T06:18:37.591Z,46.4
2023-01-30T06:23:38.249Z,47.2
2023-01-30T06:28:38.670Z,47.2
2023-01-30T06:33:40.137Z,47.7
2023-01-30T06:38:41.680Z,52
2023-01-30T06:43:42.204Z,47.8
2023-01-30T06:48:42.934Z,42.1
2023-01-30T06:53:43.448Z,37.7
2023-01-30T06:58:44.396Z,34.8
2023-01-30T07:03:45.073Z,40.8
2023-01-30T07:08:45.629Z,29.9
2023-01-30T07:13:46.219Z,32.2
2023-01-30T07:18:46.954Z,40.4
2023-01-30T07:23:47.514Z,46.7
2023-01-30T07:28:48.140Z,29.1
2023-01-30T07:33:49.133Z,27.4
2023-01-30T07:38:49.588Z,24.4
2023-01-30T07:43:49.953Z,22.7
2023-01-30T07:48:50.346Z,22.5
2023-01-30T07:53:50.814Z,23.2
2023-01-30T07:58:51.289Z,27
2023-01-30T08:03:52.048Z,20.9
2023-01-30T08:08:52.550Z,19.5
2023-01-30T08:13:52.976Z,20.1
2023-01-30T08:18:53.700Z,22.8
2023-01-30T08:23:54.152Z,20.7
2023-01-30T08:28:54.712Z,20.3
2023-01-30T08:33:55.318Z,21.7
2023-01-30T08:38:55.699Z,22.5
2023-01-30T08:43:56.322Z,21.7
2023-01-30T08:48:56.726Z,22
2023-01-30T08:53:57.269Z,21.4
2023-01-30T08:58:58.168Z,22.7
2023-01-30T09:03:58.729Z,20.4
2023-01-30T09:08:59.200Z,21.9
2023-01-30T09:13:59.650Z,24.4
2023-01-30T09:19:00.103Z,20.8
2023-01-30T09:24:00.946Z,21.6
2023-01-30T09:29:01.620Z,21.5
2023-01-30T09:34:02.253Z,22.5
2023-01-30T09:39:02.745Z,23.1
2023-01-30T09:44:03.280Z,19.6
2023-01-30T09:49:03.726Z,22.7
2023-01-30T09:54:04.855Z,24.8
2023-01-30T09:59:06.076Z,21
2023-01-30T10:04:07.075Z,23.5
2023-01-30T10:09:07.748Z,21.8
2023-01-30T10:14:08.312Z,31.4
2023-01-30T10:19:08.857Z,24.7
2023-01-30T10:24:09.334Z,27.2
2023-01-30T10:29:09.862Z,23.4
2023-01-30T10:39:11.387Z,21.6
2023-01-30T10:44:11.868Z,21.3
2023-01-30T10:49:13.193Z,23.1
2023-01-30T10:54:14.238Z,21.9
2023-01-30T10:59:15.292Z,20.1
2023-01-30T11:04:16.121Z,23.5
2023-01-30T11:09:16.775Z,21.1
2023-01-30T11:14:17.152Z,20.3
2023-01-30T11:19:21.476Z,20.8
2023-01-30T11:24:22.735Z,22.9
2023-01-30T11:29:23.334Z,19.8
2023-01-30T11:34:23.806Z,22.3
2023-01-30T11:39:24.377Z,21.6
2023-01-30T11:44:24.822Z,22.2
2023-01-30T11:49:33.690Z,19.8
2023-01-30T11:54:31.999Z,21.9
2023-01-30T11:59:32.808Z,20.8
2023-01-30T12:04:33.223Z,24.3
2023-01-30T12:09:33.744Z,18.3
2023-01-30T12:14:34.236Z,19.9
2023-01-30T12:19:34.755Z,19.1
2023-01-30T12:24:35.303Z,21.3
2023-01-30T12:29:35.922Z,20
2023-01-30T12:34:36.498Z,18.8
2023-01-30T12:39:37.024Z,16.7
2023-01-30T12:44:37.776Z,18.5
2023-01-30T12:49:38.450Z,18.3
2023-01-30T12:54:39.300Z,16.7
2023-01-30T12:59:40.130Z,15.2
2023-01-30T13:04:51.069Z,16.7
2023-01-30T13:09:44.555Z,21.8
2023-01-30T13:14:45.041Z,19.4
2023-01-30T13:19:45.833Z,18.3
2023-01-30T13:24:46.260Z,19.7
2023-01-30T13:29:46.727Z,19.7
2023-01-30T13:34:47.171Z,26.5
2023-01-30T13:39:47.813Z,20.3
2023-01-30T13:44:48.899Z,20.2
2023-01-30T13:49:49.276Z,23
2023-01-30T13:54:49.721Z,23.5
2023-01-30T13:59:50.207Z,21.6
2023-01-30T14:04:50.944Z,21.1
2023-01-30T14:09:51.508Z,24.6
2023-01-30T14:14:52.351Z,22.3
2023-01-30T14:19:53.220Z,19.6
2023-01-30T14:24:53.673Z,21.4
2023-01-30T14:29:54.243Z,23.5
2023-01-30T14:34:55.012Z,23.6
2023-01-30T14:39:56.236Z,25.5
2023-01-30T14:44:56.947Z,23.8
2023-01-30T14:49:57.487Z,22.5
2023-01-30T14:54:58.042Z,21.6
2023-01-30T15:00:14.627Z,23
2023-01-30T15:05:08.665Z,21.7
2023-01-30T15:10:09.109Z,22.1
2023-01-30T15:15:09.753Z,24.5
2023-01-30T15:20:10.567Z,24.4
2023-01-30T15:25:11.164Z,26
2023-01-30T15:30:11.689Z,28.5
2023-01-30T15:35:12.478Z,27.1
2023-01-30T15:40:13.075Z,31.8
2023-01-30T15:45:13.742Z,31.2
2023-01-30T15:50:14.669Z,29.1
2023-01-30T15:55:15.511Z,30.9
2023-01-30T16:00:16.274Z,28.2
2023-01-30T16:05:17.635Z,28.6
2023-01-30T16:10:18.285Z,25.5
2023-01-30T16:15:20.147Z,27.7
2023-01-30T16:20:20.955Z,32.2
2023-01-30T16:25:22.098Z,32.5
2023-01-30T16:30:22.891Z,29.2
2023-01-30T16:35:26.776Z,29
2023-01-30T16:40:28.867Z,35.2
2023-01-30T16:45:29.465Z,30.3
2023-01-30T16:50:29.964Z,35.7
2023-01-30T16:55:30.826Z,30.7
2023-01-30T17:00:31.640Z,30.1
2023-01-30T17:05:32.190Z,27.9
2023-01-30T17:10:32.838Z,33.8
2023-01-30T17:15:33.377Z,29.9
2023-01-30T17:20:34.193Z,27.7
2023-01-30T17:25:34.686Z,27.1
2023-01-30T17:30:35.400Z,28.5
2023-01-30T17:35:36.173Z,28.2
2023-01-30T17:40:36.715Z,28.6
2023-01-30T17:45:37.686Z,25
2023-01-30T17:50:38.177Z,23.4
2023-01-30T17:55:38.634Z,23.3
2023-01-30T18:00:39.143Z,23.2
2023-01-30T18:05:40.023Z,25.2
2023-01-30T18:10:40.539Z,22.4
2023-01-30T18:15:41.119Z,20.3
2023-01-30T18:20:41.680Z,24.7
2023-01-30T18:25:42.189Z,23.8
2023-01-30T18:30:42.923Z,23.2
2023-01-30T18:35:43.522Z,24
2023-01-30T18:40:44.157Z,23.6
2023-01-30T18:45:44.960Z,24.9
2023-01-30T18:50:45.687Z,21.6
2023-01-30T18:55:47.616Z,23.7
2023-01-30T19:00:48.493Z,25.6
2023-01-30T19:05:49.215Z,24.7
2023-01-30T19:10:49.931Z,28
2023-01-30T19:15:51.094Z,27.3
2023-01-30T19:20:52.205Z,29.8
2023-01-30T19:25:53.466Z,29.5
2023-01-30T19:30:54.649Z,26.3
2023-01-30T19:35:56.336Z,25.1
2023-01-30T19:40:56.834Z,20.5
2023-01-30T19:45:57.334Z,21.6
2023-01-30T19:50:57.992Z,21
2023-01-30T19:55:58.512Z,19.2
2023-01-30T20:00:59.210Z,18.7
2023-01-30T20:05:59.695Z,21
2023-01-30T20:11:00.316Z,16.4
2023-01-30T20:16:00.937Z,15.6
2023-01-30T20:21:02.486Z,16
2023-01-30T20:26:03.311Z,15.4
2023-01-30T20:31:03.813Z,16.7
2023-01-30T20:36:05.116Z,15
2023-01-30T20:41:06.097Z,17.2
2023-01-30T20:46:06.742Z,16.3
2023-01-30T20:51:07.252Z,16.7
2023-01-30T20:56:08.948Z,14.7
2023-01-30T21:01:11.419Z,15.4
2023-01-30T21:06:12.485Z,15.3
2023-01-30T21:11:16.663Z,14.9
2023-01-30T21:16:17.201Z,17.3
2023-01-30T21:21:17.780Z,15.1
2023-01-30T21:26:19.005Z,14.9
2023-01-30T21:31:19.542Z,16.6
2023-01-30T21:36:20.119Z,15.2
2023-01-30T21:41:20.745Z,16.5
2023-01-30T21:46:21.510Z,13.3
2023-01-30T21:51:22.231Z,13.2
2023-01-30T21:56:22.779Z,13.6
2023-01-30T22:01:23.389Z,12.8
2023-01-30T22:06:24.160Z,13.6
2023-01-30T22:11:24.648Z,11.4
2023-01-30T22:16:25.133Z,11.1
2023-01-30T22:21:25.923Z,10.9
2023-01-30T22:26:26.566Z,9.2
2023-01-30T22:31:27.266Z,9.9
2023-01-30T22:36:28.057Z,9.3
2023-01-30T22:41:28.570Z,10.5
2023-01-30T22:46:29.307Z,9.1
2023-01-30T22:51:30.310Z,24.2
2023-01-30T22:56:30.781Z,9.3
2023-01-30T23:01:31.361Z,8.9
2023-01-30T23:06:32.015Z,9.4
2023-01-30T23:11:32.703Z,10.5
2023-01-30T23:16:33.247Z,8.6
2023-01-30T23:21:34.014Z,8.4
2023-01-30T23:26:35.596Z,9.7
2023-01-30T23:31:36.726Z,8.2
2023-01-30T23:36:37.910Z,8
2023-01-30T23:41:38.853Z,8.3
2023-01-30T23:46:40.050Z,7.8
2023-01-30T23:51:40.835Z,6.8
2023-01-30T23:56:41.314Z,7.6
